sensor_id;sensor_type;location;lat;lon;timestamp;P1;durP1;ratioP1;P2;durP2;ratioP2
81672;SDS011;71092;41.158;-8.680;2023-08-12T00:01:36;12.18;;;4.35;;
81672;SDS011;71092;41.158;-8.680;2023-08-12T00:04:02;10.50;;;3.90;;
81672;SDS011;71092;41.158;-8.680;2023-08-12T00:06:28;11.32;;;4.25;;
81672;SDS011;71092;41.158;-8.680;2023-08-12T00:08:54;10.55;;;3.72;;
81672;SDS011;71092;41.158;-8.680;2023-08-12T00:11:20;9.40;;;3.75;;
81672;SDS011;71092;41.158;-8.680;2023-08-12T00:13:46;10.43;;;4.15;;
81672;SDS011;71092;41.158;-8.680;2023-08-12T00:16:12;10.52;;;4.28;;
81672;SDS011;71092;41.158;-8.680;2023-08-12T00:18:37;9.18;;;3.97;;
81672;SDS011;71092;41.158;-8.680;2023-08-12T00:21:07;10.73;;;3.92;;
81672;SDS011;71092;41.158;-8.680;2023-08-12T00:23:37;9.15;;;3.60;;
81672;SDS011;71092;41.158;-8.680;2023-08-12T00:26:03;11.60;;;4.30;;
81672;SDS011;71092;41.158;-8.680;2023-08-12T00:28:29;9.38;;;3.72;;
81672;SDS011;71092;41.158;-8.680;2023-08-12T00:30:55;9.65;;;4.10;;
81672;SDS011;71092;41.158;-8.680;2023-08-12T00:33:21;8.57;;;3.80;;
81672;SDS011;71092;41.158;-8.680;2023-08-12T00:35:47;11.27;;;4.00;;
81672;SDS011;71092;41.158;-8.680;2023-08-12T00:38:13;9.82;;;4.43;;
81672;SDS011;71092;41.158;-8.680;2023-08-12T00:40:39;8.60;;;3.70;;
81672;SDS011;71092;41.158;-8.680;2023-08-12T00:43:04;9.00;;;4.07;;
81672;SDS011;71092;41.158;-8.680;2023-08-12T00:45:30;9.20;;;3.78;;
81672;SDS011;71092;41.158;-8.680;2023-08-12T00:47:56;10.57;;;3.97;;
81672;SDS011;71092;41.158;-8.680;2023-08-12T00:50:22;11.75;;;4.13;;
81672;SDS011;71092;41.158;-8.680;2023-08-12T00:52:49;11.13;;;4.45;;
81672;SDS011;71092;41.158;-8.680;2023-08-12T00:55:15;8.75;;;3.83;;
81672;SDS011;71092;41.158;-8.680;2023-08-12T00:57:42;8.35;;;3.97;;
81672;SDS011;71092;41.158;-8.680;2023-08-12T01:00:09;9.07;;;3.60;;
81672;SDS011;71092;41.158;-8.680;2023-08-12T01:02:35;11.43;;;4.40;;
81672;SDS011;71092;41.158;-8.680;2023-08-12T01:05:01;9.65;;;3.88;;
81672;SDS011;71092;41.158;-8.680;2023-08-12T01:07:26;11.32;;;3.90;;
81672;SDS011;71092;41.158;-8.680;2023-08-12T01:09:52;10.02;;;4.07;;
81672;SDS011;71092;41.158;-8.680;2023-08-12T01:15:02;11.23;;;4.50;;
81672;SDS011;71092;41.158;-8.680;2023-08-12T01:17:33;9.45;;;4.22;;
81672;SDS011;71092;41.158;-8.680;2023-08-12T01:20:00;11.60;;;4.25;;
81672;SDS011;71092;41.158;-8.680;2023-08-12T01:22:33;11.15;;;4.10;;
81672;SDS011;71092;41.158;-8.680;2023-08-12T01:25:02;9.07;;;3.72;;
81672;SDS011;71092;41.158;-8.680;2023-08-12T01:27:28;12.18;;;4.07;;
81672;SDS011;71092;41.158;-8.680;2023-08-12T01:29:54;7.22;;;3.42;;
81672;SDS011;71092;41.158;-8.680;2023-08-12T01:35:09;9.55;;;4.15;;
81672;SDS011;71092;41.158;-8.680;2023-08-12T01:37:41;9.35;;;3.70;;
81672;SDS011;71092;41.158;-8.680;2023-08-12T01:40:08;8.52;;;4.28;;
81672;SDS011;71092;41.158;-8.680;2023-08-12T01:42:34;11.40;;;4.03;;
81672;SDS011;71092;41.158;-8.680;2023-08-12T01:45:02;8.80;;;3.30;;
81672;SDS011;71092;41.158;-8.680;2023-08-12T01:47:29;8.60;;;3.42;;
81672;SDS011;71092;41.158;-8.680;2023-08-12T01:49:56;8.52;;;3.78;;
81672;SDS011;71092;41.158;-8.680;2023-08-12T01:52:23;8.30;;;3.72;;
81672;SDS011;71092;41.158;-8.680;2023-08-12T01:54:49;8.32;;;3.20;;
81672;SDS011;71092;41.158;-8.680;2023-08-12T01:57:15;10.55;;;3.60;;
81672;SDS011;71092;41.158;-8.680;2023-08-12T01:59:41;7.10;;;3.60;;
81672;SDS011;71092;41.158;-8.680;2023-08-12T02:02:10;12.48;;;4.00;;
81672;SDS011;71092;41.158;-8.680;2023-08-12T02:04:36;8.55;;;4.15;;
81672;SDS011;71092;41.158;-8.680;2023-08-12T02:07:03;9.15;;;3.80;;
81672;SDS011;71092;41.158;-8.680;2023-08-12T02:09:29;8.82;;;4.05;;
81672;SDS011;71092;41.158;-8.680;2023-08-12T02:11:56;9.02;;;3.88;;
81672;SDS011;71092;41.158;-8.680;2023-08-12T02:14:22;10.45;;;3.53;;
81672;SDS011;71092;41.158;-8.680;2023-08-12T02:16:48;9.55;;;4.05;;
81672;SDS011;71092;41.158;-8.680;2023-08-12T02:19:14;7.95;;;3.00;;
81672;SDS011;71092;41.158;-8.680;2023-08-12T02:21:41;9.90;;;3.63;;
81672;SDS011;71092;41.158;-8.680;2023-08-12T02:24:07;9.57;;;3.65;;
81672;SDS011;71092;41.158;-8.680;2023-08-12T02:26:33;8.20;;;3.38;;
81672;SDS011;71092;41.158;-8.680;2023-08-12T02:28:59;6.80;;;2.97;;
81672;SDS011;71092;41.158;-8.680;2023-08-12T02:31:25;10.07;;;3.45;;
81672;SDS011;71092;41.158;-8.680;2023-08-12T02:33:53;7.60;;;4.00;;
81672;SDS011;71092;41.158;-8.680;2023-08-12T02:36:19;7.30;;;3.47;;
81672;SDS011;71092;41.158;-8.680;2023-08-12T02:38:44;8.27;;;3.58;;
81672;SDS011;71092;41.158;-8.680;2023-08-12T02:41:10;7.55;;;3.20;;
81672;SDS011;71092;41.158;-8.680;2023-08-12T02:43:36;6.45;;;3.00;;
81672;SDS011;71092;41.158;-8.680;2023-08-12T02:46:02;8.10;;;3.85;;
81672;SDS011;71092;41.158;-8.680;2023-08-12T02:48:28;7.00;;;3.20;;
81672;SDS011;71092;41.158;-8.680;2023-08-12T02:50:54;7.32;;;3.20;;
81672;SDS011;71092;41.158;-8.680;2023-08-12T02:53:20;6.03;;;2.72;;
81672;SDS011;71092;41.158;-8.680;2023-08-12T02:55:46;6.55;;;2.92;;
81672;SDS011;71092;41.158;-8.680;2023-08-12T02:58:11;8.63;;;3.42;;
81672;SDS011;71092;41.158;-8.680;2023-08-12T03:00:40;7.15;;;3.20;;
81672;SDS011;71092;41.158;-8.680;2023-08-12T03:03:09;6.68;;;2.70;;
81672;SDS011;71092;41.158;-8.680;2023-08-12T03:05:35;7.43;;;3.05;;
81672;SDS011;71092;41.158;-8.680;2023-08-12T03:08:01;8.13;;;3.50;;
81672;SDS011;71092;41.158;-8.680;2023-08-12T03:10:29;9.20;;;3.65;;
81672;SDS011;71092;41.158;-8.680;2023-08-12T03:12:56;6.15;;;2.70;;
81672;SDS011;71092;41.158;-8.680;2023-08-12T03:15:22;6.70;;;2.95;;
81672;SDS011;71092;41.158;-8.680;2023-08-12T03:17:48;7.55;;;3.22;;
81672;SDS011;71092;41.158;-8.680;2023-08-12T03:20:15;10.68;;;4.20;;
81672;SDS011;71092;41.158;-8.680;2023-08-12T03:22:41;7.32;;;3.20;;
81672;SDS011;71092;41.158;-8.680;2023-08-12T03:25:08;8.98;;;3.30;;
81672;SDS011;71092;41.158;-8.680;2023-08-12T03:27:34;8.40;;;2.85;;
81672;SDS011;71092;41.158;-8.680;2023-08-12T03:30:01;7.38;;;3.08;;
81672;SDS011;71092;41.158;-8.680;2023-08-12T03:32:27;7.32;;;3.75;;
81672;SDS011;71092;41.158;-8.680;2023-08-12T03:34:54;9.15;;;3.53;;
81672;SDS011;71092;41.158;-8.680;2023-08-12T03:37:20;6.43;;;3.40;;
81672;SDS011;71092;41.158;-8.680;2023-08-12T03:39:48;9.30;;;3.10;;
81672;SDS011;71092;41.158;-8.680;2023-08-12T03:42:15;7.20;;;3.13;;
81672;SDS011;71092;41.158;-8.680;2023-08-12T03:44:43;6.65;;;3.08;;
81672;SDS011;71092;41.158;-8.680;2023-08-12T03:47:10;8.15;;;3.08;;
81672;SDS011;71092;41.158;-8.680;2023-08-12T03:49:36;8.38;;;3.83;;
81672;SDS011;71092;41.158;-8.680;2023-08-12T03:52:03;7.50;;;2.85;;
81672;SDS011;71092;41.158;-8.680;2023-08-12T03:54:29;7.53;;;2.67;;
81672;SDS011;71092;41.158;-8.680;2023-08-12T03:56:55;8.25;;;3.22;;
81672;SDS011;71092;41.158;-8.680;2023-08-12T03:59:22;6.95;;;3.08;;
81672;SDS011;71092;41.158;-8.680;2023-08-12T04:01:48;8.25;;;3.50;;
81672;SDS011;71092;41.158;-8.680;2023-08-12T04:04:15;7.88;;;3.45;;
81672;SDS011;71092;41.158;-8.680;2023-08-12T04:06:41;9.77;;;3.67;;
81672;SDS011;71092;41.158;-8.680;2023-08-12T04:09:06;7.80;;;3.50;;
81672;SDS011;71092;41.158;-8.680;2023-08-12T04:11:32;8.27;;;3.22;;
81672;SDS011;71092;41.158;-8.680;2023-08-12T04:13:58;7.68;;;3.10;;
81672;SDS011;71092;41.158;-8.680;2023-08-12T04:16:24;8.05;;;3.47;;
81672;SDS011;71092;41.158;-8.680;2023-08-12T04:18:50;6.45;;;3.05;;
81672;SDS011;71092;41.158;-8.680;2023-08-12T04:21:16;9.77;;;3.20;;
81672;SDS011;71092;41.158;-8.680;2023-08-12T04:23:42;7.38;;;2.95;;
81672;SDS011;71092;41.158;-8.680;2023-08-12T04:26:07;6.40;;;2.78;;
81672;SDS011;71092;41.158;-8.680;2023-08-12T04:28:34;8.45;;;3.40;;
81672;SDS011;71092;41.158;-8.680;2023-08-12T04:30:59;7.53;;;2.58;;
81672;SDS011;71092;41.158;-8.680;2023-08-12T04:33:26;8.55;;;3.10;;
81672;SDS011;71092;41.158;-8.680;2023-08-12T04:35:52;6.50;;;3.42;;
81672;SDS011;71092;41.158;-8.680;2023-08-12T04:38:18;7.28;;;3.38;;
81672;SDS011;71092;41.158;-8.680;2023-08-12T04:40:45;8.05;;;3.20;;
81672;SDS011;71092;41.158;-8.680;2023-08-12T04:43:11;8.95;;;3.47;;
81672;SDS011;71092;41.158;-8.680;2023-08-12T04:45:38;7.93;;;3.53;;
81672;SDS011;71092;41.158;-8.680;2023-08-12T04:48:05;7.68;;;3.28;;
81672;SDS011;71092;41.158;-8.680;2023-08-12T04:50:33;6.72;;;2.95;;
81672;SDS011;71092;41.158;-8.680;2023-08-12T04:53:00;7.50;;;3.08;;
81672;SDS011;71092;41.158;-8.680;2023-08-12T04:55:27;6.82;;;3.10;;
81672;SDS011;71092;41.158;-8.680;2023-08-12T04:57:53;7.22;;;3.30;;
81672;SDS011;71092;41.158;-8.680;2023-08-12T05:00:20;7.18;;;3.40;;
81672;SDS011;71092;41.158;-8.680;2023-08-12T05:02:46;6.97;;;2.97;;
81672;SDS011;71092;41.158;-8.680;2023-08-12T05:05:12;8.65;;;3.40;;
81672;SDS011;71092;41.158;-8.680;2023-08-12T05:07:38;8.05;;;3.28;;
81672;SDS011;71092;41.158;-8.680;2023-08-12T05:10:04;6.95;;;2.92;;
81672;SDS011;71092;41.158;-8.680;2023-08-12T05:12:31;8.02;;;3.55;;
81672;SDS011;71092;41.158;-8.680;2023-08-12T05:14:57;6.18;;;2.88;;
81672;SDS011;71092;41.158;-8.680;2023-08-12T05:17:23;6.68;;;3.20;;
81672;SDS011;71092;41.158;-8.680;2023-08-12T05:19:50;10.38;;;3.28;;
81672;SDS011;71092;41.158;-8.680;2023-08-12T05:22:16;7.47;;;3.33;;
81672;SDS011;71092;41.158;-8.680;2023-08-12T05:24:42;8.07;;;3.22;;
81672;SDS011;71092;41.158;-8.680;2023-08-12T05:27:07;8.80;;;3.30;;
81672;SDS011;71092;41.158;-8.680;2023-08-12T05:29:33;9.23;;;3.15;;
81672;SDS011;71092;41.158;-8.680;2023-08-12T05:31:59;10.18;;;3.85;;
81672;SDS011;71092;41.158;-8.680;2023-08-12T05:34:26;7.38;;;3.33;;
81672;SDS011;71092;41.158;-8.680;2023-08-12T05:36:52;7.15;;;3.08;;
81672;SDS011;71092;41.158;-8.680;2023-08-12T05:39:18;7.05;;;2.80;;
81672;SDS011;71092;41.158;-8.680;2023-08-12T05:41:44;8.68;;;3.40;;
81672;SDS011;71092;41.158;-8.680;2023-08-12T05:44:10;11.40;;;4.07;;
81672;SDS011;71092;41.158;-8.680;2023-08-12T05:46:36;7.13;;;3.10;;
81672;SDS011;71092;41.158;-8.680;2023-08-12T05:49:02;9.43;;;3.38;;
81672;SDS011;71092;41.158;-8.680;2023-08-12T05:51:28;6.88;;;3.05;;
81672;SDS011;71092;41.158;-8.680;2023-08-12T05:53:54;9.35;;;3.30;;
81672;SDS011;71092;41.158;-8.680;2023-08-12T05:56:19;6.78;;;3.30;;
81672;SDS011;71092;41.158;-8.680;2023-08-12T05:58:45;7.40;;;2.90;;
81672;SDS011;71092;41.158;-8.680;2023-08-12T06:01:11;6.05;;;2.83;;
81672;SDS011;71092;41.158;-8.680;2023-08-12T06:03:37;8.65;;;3.58;;
81672;SDS011;71092;41.158;-8.680;2023-08-12T06:06:03;8.70;;;3.78;;
81672;SDS011;71092;41.158;-8.680;2023-08-12T06:08:29;7.03;;;2.70;;
81672;SDS011;71092;41.158;-8.680;2023-08-12T06:10:55;7.80;;;2.90;;
81672;SDS011;71092;41.158;-8.680;2023-08-12T06:13:21;8.43;;;3.78;;
81672;SDS011;71092;41.158;-8.680;2023-08-12T06:15:46;6.50;;;3.42;;
81672;SDS011;71092;41.158;-8.680;2023-08-12T06:18:12;7.20;;;3.67;;
81672;SDS011;71092;41.158;-8.680;2023-08-12T06:20:38;9.48;;;3.55;;
81672;SDS011;71092;41.158;-8.680;2023-08-12T06:23:04;7.45;;;3.75;;
81672;SDS011;71092;41.158;-8.680;2023-08-12T06:25:30;8.23;;;3.25;;
81672;SDS011;71092;41.158;-8.680;2023-08-12T06:27:55;5.68;;;2.72;;
81672;SDS011;71092;41.158;-8.680;2023-08-12T06:30:23;8.82;;;2.97;;
81672;SDS011;71092;41.158;-8.680;2023-08-12T06:32:49;7.53;;;3.13;;
81672;SDS011;71092;41.158;-8.680;2023-08-12T06:35:16;7.93;;;3.40;;
81672;SDS011;71092;41.158;-8.680;2023-08-12T06:37:42;7.63;;;3.38;;
81672;SDS011;71092;41.158;-8.680;2023-08-12T06:40:08;7.47;;;2.80;;
81672;SDS011;71092;41.158;-8.680;2023-08-12T06:42:34;7.38;;;2.92;;
81672;SDS011;71092;41.158;-8.680;2023-08-12T06:45:00;6.30;;;3.15;;
81672;SDS011;71092;41.158;-8.680;2023-08-12T06:47:29;7.53;;;2.85;;
81672;SDS011;71092;41.158;-8.680;2023-08-12T06:49:55;8.38;;;3.33;;
81672;SDS011;71092;41.158;-8.680;2023-08-12T06:52:21;6.90;;;3.47;;
81672;SDS011;71092;41.158;-8.680;2023-08-12T06:54:47;7.38;;;3.28;;
81672;SDS011;71092;41.158;-8.680;2023-08-12T06:57:13;9.02;;;3.35;;
81672;SDS011;71092;41.158;-8.680;2023-08-12T06:59:39;7.53;;;3.22;;
81672;SDS011;71092;41.158;-8.680;2023-08-12T07:02:06;8.82;;;3.90;;
81672;SDS011;71092;41.158;-8.680;2023-08-12T07:04:32;6.80;;;3.50;;
81672;SDS011;71092;41.158;-8.680;2023-08-12T07:06:58;7.43;;;3.22;;
81672;SDS011;71092;41.158;-8.680;2023-08-12T07:09:24;7.60;;;3.40;;
81672;SDS011;71092;41.158;-8.680;2023-08-12T07:11:50;8.40;;;3.30;;
81672;SDS011;71092;41.158;-8.680;2023-08-12T07:14:16;6.57;;;3.08;;
81672;SDS011;71092;41.158;-8.680;2023-08-12T07:16:42;7.50;;;3.63;;
81672;SDS011;71092;41.158;-8.680;2023-08-12T07:19:08;8.55;;;3.85;;
81672;SDS011;71092;41.158;-8.680;2023-08-12T07:21:34;9.65;;;3.58;;
81672;SDS011;71092;41.158;-8.680;2023-08-12T07:23:59;8.07;;;3.67;;
81672;SDS011;71092;41.158;-8.680;2023-08-12T07:26:25;7.90;;;2.65;;
81672;SDS011;71092;41.158;-8.680;2023-08-12T07:28:51;7.63;;;3.15;;
81672;SDS011;71092;41.158;-8.680;2023-08-12T07:31:17;6.68;;;3.05;;
81672;SDS011;71092;41.158;-8.680;2023-08-12T07:33:43;7.35;;;2.63;;
81672;SDS011;71092;41.158;-8.680;2023-08-12T07:36:09;7.07;;;2.78;;
81672;SDS011;71092;41.158;-8.680;2023-08-12T07:38:35;7.28;;;3.05;;
81672;SDS011;71092;41.158;-8.680;2023-08-12T07:41:01;7.00;;;2.92;;
81672;SDS011;71092;41.158;-8.680;2023-08-12T07:43:27;8.02;;;2.78;;
81672;SDS011;71092;41.158;-8.680;2023-08-12T07:45:53;9.07;;;3.53;;
81672;SDS011;71092;41.158;-8.680;2023-08-12T07:48:19;7.28;;;3.20;;
81672;SDS011;71092;41.158;-8.680;2023-08-12T07:50:45;8.68;;;3.72;;
81672;SDS011;71092;41.158;-8.680;2023-08-12T07:53:14;6.78;;;3.13;;
81672;SDS011;71092;41.158;-8.680;2023-08-12T07:55:41;7.70;;;3.03;;
81672;SDS011;71092;41.158;-8.680;2023-08-12T07:58:07;10.65;;;3.45;;
81672;SDS011;71092;41.158;-8.680;2023-08-12T08:00:34;7.75;;;2.63;;
81672;SDS011;71092;41.158;-8.680;2023-08-12T08:02:59;6.82;;;3.10;;
81672;SDS011;71092;41.158;-8.680;2023-08-12T08:05:25;7.85;;;4.00;;
81672;SDS011;71092;41.158;-8.680;2023-08-12T08:07:51;8.52;;;3.75;;
81672;SDS011;71092;41.158;-8.680;2023-08-12T08:10:17;7.25;;;3.95;;
81672;SDS011;71092;41.158;-8.680;2023-08-12T08:12:43;7.60;;;3.75;;
81672;SDS011;71092;41.158;-8.680;2023-08-12T08:15:09;8.90;;;3.53;;
81672;SDS011;71092;41.158;-8.680;2023-08-12T08:17:35;8.82;;;3.28;;
81672;SDS011;71092;41.158;-8.680;2023-08-12T08:20:01;8.50;;;3.80;;
81672;SDS011;71092;41.158;-8.680;2023-08-12T08:22:28;7.88;;;2.92;;
81672;SDS011;71092;41.158;-8.680;2023-08-12T08:24:54;7.32;;;2.70;;
81672;SDS011;71092;41.158;-8.680;2023-08-12T08:27:20;6.93;;;3.53;;
81672;SDS011;71092;41.158;-8.680;2023-08-12T08:29:46;7.65;;;3.35;;
81672;SDS011;71092;41.158;-8.680;2023-08-12T08:32:11;8.10;;;3.10;;
81672;SDS011;71092;41.158;-8.680;2023-08-12T08:34:37;7.28;;;3.67;;
81672;SDS011;71092;41.158;-8.680;2023-08-12T08:37:03;8.40;;;2.92;;
81672;SDS011;71092;41.158;-8.680;2023-08-12T08:39:31;7.15;;;2.80;;
81672;SDS011;71092;41.158;-8.680;2023-08-12T08:41:57;7.35;;;2.83;;
81672;SDS011;71092;41.158;-8.680;2023-08-12T08:44:24;8.43;;;3.70;;
81672;SDS011;71092;41.158;-8.680;2023-08-12T08:46:54;7.05;;;3.10;;
81672;SDS011;71092;41.158;-8.680;2023-08-12T08:49:21;7.25;;;2.97;;
81672;SDS011;71092;41.158;-8.680;2023-08-12T08:51:47;7.40;;;3.10;;
81672;SDS011;71092;41.158;-8.680;2023-08-12T08:54:13;8.07;;;3.50;;
81672;SDS011;71092;41.158;-8.680;2023-08-12T08:56:39;7.30;;;3.28;;
81672;SDS011;71092;41.158;-8.680;2023-08-12T08:59:05;9.35;;;3.20;;
81672;SDS011;71092;41.158;-8.680;2023-08-12T09:01:31;16.00;;;4.20;;
81672;SDS011;71092;41.158;-8.680;2023-08-12T09:03:57;12.77;;;4.72;;
81672;SDS011;71092;41.158;-8.680;2023-08-12T09:06:26;16.75;;;4.28;;
81672;SDS011;71092;41.158;-8.680;2023-08-12T09:08:54;17.90;;;5.35;;
81672;SDS011;71092;41.158;-8.680;2023-08-12T09:11:20;13.38;;;4.75;;
81672;SDS011;71092;41.158;-8.680;2023-08-12T09:13:46;15.93;;;4.50;;
81672;SDS011;71092;41.158;-8.680;2023-08-12T09:16:13;14.25;;;4.70;;
81672;SDS011;71092;41.158;-8.680;2023-08-12T09:18:40;15.55;;;5.55;;
81672;SDS011;71092;41.158;-8.680;2023-08-12T09:21:08;18.13;;;5.80;;
81672;SDS011;71092;41.158;-8.680;2023-08-12T09:23:35;20.17;;;6.30;;
81672;SDS011;71092;41.158;-8.680;2023-08-12T09:26:12;21.23;;;6.22;;
81672;SDS011;71092;41.158;-8.680;2023-08-12T09:28:43;23.55;;;5.90;;
81672;SDS011;71092;41.158;-8.680;2023-08-12T09:31:28;22.63;;;7.68;;
81672;SDS011;71092;41.158;-8.680;2023-08-12T09:33:59;22.67;;;6.72;;
81672;SDS011;71092;41.158;-8.680;2023-08-12T09:36:28;19.17;;;6.88;;
81672;SDS011;71092;41.158;-8.680;2023-08-12T09:38:56;19.50;;;6.63;;
81672;SDS011;71092;41.158;-8.680;2023-08-12T09:41:24;17.67;;;5.32;;
81672;SDS011;71092;41.158;-8.680;2023-08-12T09:43:51;21.83;;;6.70;;
81672;SDS011;71092;41.158;-8.680;2023-08-12T09:46:18;18.92;;;6.43;;
81672;SDS011;71092;41.158;-8.680;2023-08-12T09:48:47;19.85;;;7.53;;
81672;SDS011;71092;41.158;-8.680;2023-08-12T09:51:15;24.85;;;8.70;;
81672;SDS011;71092;41.158;-8.680;2023-08-12T09:53:41;50.20;;;21.80;;
81672;SDS011;71092;41.158;-8.680;2023-08-12T09:56:07;53.47;;;24.83;;
81672;SDS011;71092;41.158;-8.680;2023-08-12T09:58:36;50.03;;;23.13;;
81672;SDS011;71092;41.158;-8.680;2023-08-12T10:01:02;55.65;;;24.50;;
81672;SDS011;71092;41.158;-8.680;2023-08-12T10:03:30;56.00;;;25.13;;
81672;SDS011;71092;41.158;-8.680;2023-08-12T10:05:58;49.75;;;24.02;;
81672;SDS011;71092;41.158;-8.680;2023-08-12T10:08:26;41.17;;;18.15;;
81672;SDS011;71092;41.158;-8.680;2023-08-12T10:10:53;47.83;;;18.45;;
81672;SDS011;71092;41.158;-8.680;2023-08-12T10:13:19;39.85;;;15.13;;
81672;SDS011;71092;41.158;-8.680;2023-08-12T10:15:46;44.25;;;16.88;;
81672;SDS011;71092;41.158;-8.680;2023-08-12T10:18:12;36.33;;;15.18;;
81672;SDS011;71092;41.158;-8.680;2023-08-12T10:20:39;38.17;;;16.80;;
81672;SDS011;71092;41.158;-8.680;2023-08-12T10:23:05;43.63;;;14.85;;
81672;SDS011;71092;41.158;-8.680;2023-08-12T10:25:32;41.28;;;16.50;;
81672;SDS011;71092;41.158;-8.680;2023-08-12T10:28:01;36.42;;;15.18;;
81672;SDS011;71092;41.158;-8.680;2023-08-12T10:30:30;37.28;;;13.85;;
81672;SDS011;71092;41.158;-8.680;2023-08-12T10:32:57;36.80;;;14.45;;
81672;SDS011;71092;41.158;-8.680;2023-08-12T10:35:30;34.17;;;11.75;;
81672;SDS011;71092;41.158;-8.680;2023-08-12T10:38:10;32.03;;;12.48;;
81672;SDS011;71092;41.158;-8.680;2023-08-12T10:40:37;32.47;;;12.75;;
81672;SDS011;71092;41.158;-8.680;2023-08-12T10:43:04;31.80;;;11.23;;
81672;SDS011;71092;41.158;-8.680;2023-08-12T10:48:11;34.80;;;11.70;;
81672;SDS011;71092;41.158;-8.680;2023-08-12T10:50:44;35.72;;;10.68;;
81672;SDS011;71092;41.158;-8.680;2023-08-12T10:53:21;30.90;;;10.73;;
81672;SDS011;71092;41.158;-8.680;2023-08-12T10:55:58;29.88;;;11.30;;
81672;SDS011;71092;41.158;-8.680;2023-08-12T10:58:30;29.73;;;10.20;;
81672;SDS011;71092;41.158;-8.680;2023-08-12T11:00:59;29.33;;;10.32;;
81672;SDS011;71092;41.158;-8.680;2023-08-12T11:03:25;27.20;;;9.07;;
81672;SDS011;71092;41.158;-8.680;2023-08-12T11:05:51;27.35;;;8.88;;
81672;SDS011;71092;41.158;-8.680;2023-08-12T11:08:24;29.13;;;9.70;;
81672;SDS011;71092;41.158;-8.680;2023-08-12T11:10:52;34.40;;;9.48;;
81672;SDS011;71092;41.158;-8.680;2023-08-12T11:13:19;33.13;;;9.45;;
81672;SDS011;71092;41.158;-8.680;2023-08-12T11:15:47;34.72;;;8.93;;
81672;SDS011;71092;41.158;-8.680;2023-08-12T11:18:14;38.58;;;9.73;;
81672;SDS011;71092;41.158;-8.680;2023-08-12T11:20:42;34.03;;;9.25;;
81672;SDS011;71092;41.158;-8.680;2023-08-12T11:23:09;38.40;;;9.50;;
81672;SDS011;71092;41.158;-8.680;2023-08-12T11:25:36;27.63;;;8.55;;
81672;SDS011;71092;41.158;-8.680;2023-08-12T11:28:06;33.58;;;8.85;;
81672;SDS011;71092;41.158;-8.680;2023-08-12T11:30:36;39.00;;;7.85;;
81672;SDS011;71092;41.158;-8.680;2023-08-12T11:33:02;37.90;;;9.32;;
81672;SDS011;71092;41.158;-8.680;2023-08-12T11:35:28;33.28;;;8.93;;
81672;SDS011;71092;41.158;-8.680;2023-08-12T11:37:58;34.15;;;8.40;;
81672;SDS011;71092;41.158;-8.680;2023-08-12T11:40:25;29.50;;;8.70;;
81672;SDS011;71092;41.158;-8.680;2023-08-12T11:42:52;34.03;;;8.27;;
81672;SDS011;71092;41.158;-8.680;2023-08-12T11:45:19;38.55;;;8.75;;
81672;SDS011;71092;41.158;-8.680;2023-08-12T11:47:47;33.53;;;8.95;;
81672;SDS011;71092;41.158;-8.680;2023-08-12T11:50:18;32.25;;;7.65;;
81672;SDS011;71092;41.158;-8.680;2023-08-12T11:52:45;33.17;;;7.80;;
81672;SDS011;71092;41.158;-8.680;2023-08-12T11:55:11;34.53;;;9.55;;
81672;SDS011;71092;41.158;-8.680;2023-08-12T11:57:41;33.78;;;8.63;;
81672;SDS011;71092;41.158;-8.680;2023-08-12T12:00:08;30.45;;;7.63;;
81672;SDS011;71092;41.158;-8.680;2023-08-12T12:02:40;37.75;;;8.20;;
81672;SDS011;71092;41.158;-8.680;2023-08-12T12:05:17;28.63;;;8.00;;
81672;SDS011;71092;41.158;-8.680;2023-08-12T12:07:44;35.58;;;7.20;;
81672;SDS011;71092;41.158;-8.680;2023-08-12T12:10:20;29.63;;;6.70;;
81672;SDS011;71092;41.158;-8.680;2023-08-12T12:12:54;27.15;;;7.60;;
81672;SDS011;71092;41.158;-8.680;2023-08-12T12:15:20;26.77;;;6.93;;
81672;SDS011;71092;41.158;-8.680;2023-08-12T12:17:49;32.75;;;6.90;;
81672;SDS011;71092;41.158;-8.680;2023-08-12T12:20:16;25.52;;;6.32;;
81672;SDS011;71092;41.158;-8.680;2023-08-12T12:22:43;27.92;;;6.20;;
81672;SDS011;71092;41.158;-8.680;2023-08-12T12:25:17;28.58;;;6.25;;
81672;SDS011;71092;41.158;-8.680;2023-08-12T12:27:46;24.65;;;5.88;;
81672;SDS011;71092;41.158;-8.680;2023-08-12T12:30:13;27.52;;;6.50;;
81672;SDS011;71092;41.158;-8.680;2023-08-12T12:32:40;26.30;;;5.43;;
81672;SDS011;71092;41.158;-8.680;2023-08-12T12:35:06;25.27;;;5.97;;
81672;SDS011;71092;41.158;-8.680;2023-08-12T12:37:33;27.00;;;5.53;;
81672;SDS011;71092;41.158;-8.680;2023-08-12T12:39:59;24.63;;;5.85;;
81672;SDS011;71092;41.158;-8.680;2023-08-12T12:42:25;26.63;;;6.90;;
81672;SDS011;71092;41.158;-8.680;2023-08-12T12:44:52;25.55;;;5.18;;
81672;SDS011;71092;41.158;-8.680;2023-08-12T12:47:18;21.10;;;5.80;;
81672;SDS011;71092;41.158;-8.680;2023-08-12T12:49:45;33.10;;;6.35;;
81672;SDS011;71092;41.158;-8.680;2023-08-12T12:52:11;26.90;;;6.57;;
81672;SDS011;71092;41.158;-8.680;2023-08-12T12:54:37;25.65;;;6.32;;
81672;SDS011;71092;41.158;-8.680;2023-08-12T12:57:03;27.80;;;6.13;;
81672;SDS011;71092;41.158;-8.680;2023-08-12T12:59:32;28.40;;;6.32;;
81672;SDS011;71092;41.158;-8.680;2023-08-12T13:01:58;29.63;;;6.68;;
81672;SDS011;71092;41.158;-8.680;2023-08-12T13:04:24;24.10;;;6.57;;
81672;SDS011;71092;41.158;-8.680;2023-08-12T13:06:50;27.33;;;6.40;;
81672;SDS011;71092;41.158;-8.680;2023-08-12T13:09:16;26.33;;;6.88;;
81672;SDS011;71092;41.158;-8.680;2023-08-12T13:11:43;32.22;;;7.32;;
81672;SDS011;71092;41.158;-8.680;2023-08-12T13:14:09;34.38;;;7.32;;
81672;SDS011;71092;41.158;-8.680;2023-08-12T13:16:35;34.65;;;7.80;;
81672;SDS011;71092;41.158;-8.680;2023-08-12T13:19:01;32.80;;;7.93;;
81672;SDS011;71092;41.158;-8.680;2023-08-12T13:21:27;35.47;;;7.50;;
81672;SDS011;71092;41.158;-8.680;2023-08-12T13:23:53;27.33;;;6.15;;
81672;SDS011;71092;41.158;-8.680;2023-08-12T13:26:22;32.05;;;7.28;;
81672;SDS011;71092;41.158;-8.680;2023-08-12T13:28:48;31.88;;;7.72;;
81672;SDS011;71092;41.158;-8.680;2023-08-12T13:31:14;34.75;;;7.15;;
81672;SDS011;71092;41.158;-8.680;2023-08-12T13:33:40;45.45;;;8.57;;
81672;SDS011;71092;41.158;-8.680;2023-08-12T13:36:06;33.80;;;7.82;;
81672;SDS011;71092;41.158;-8.680;2023-08-12T13:38:32;32.75;;;7.55;;
81672;SDS011;71092;41.158;-8.680;2023-08-12T13:40:58;26.23;;;7.13;;
81672;SDS011;71092;41.158;-8.680;2023-08-12T13:43:24;30.48;;;6.38;;
81672;SDS011;71092;41.158;-8.680;2023-08-12T13:45:50;31.48;;;7.40;;
81672;SDS011;71092;41.158;-8.680;2023-08-12T13:48:16;26.40;;;5.65;;
81672;SDS011;71092;41.158;-8.680;2023-08-12T13:50:42;28.75;;;6.72;;
81672;SDS011;71092;41.158;-8.680;2023-08-12T13:53:08;31.95;;;5.88;;
81672;SDS011;71092;41.158;-8.680;2023-08-12T13:55:34;27.38;;;6.18;;
81672;SDS011;71092;41.158;-8.680;2023-08-12T13:58:00;30.35;;;7.13;;
81672;SDS011;71092;41.158;-8.680;2023-08-12T14:00:26;26.23;;;6.10;;
81672;SDS011;71092;41.158;-8.680;2023-08-12T14:02:52;28.67;;;6.80;;
81672;SDS011;71092;41.158;-8.680;2023-08-12T14:05:18;27.55;;;6.22;;
81672;SDS011;71092;41.158;-8.680;2023-08-12T14:07:45;32.33;;;7.22;;
81672;SDS011;71092;41.158;-8.680;2023-08-12T14:10:11;40.13;;;6.78;;
81672;SDS011;71092;41.158;-8.680;2023-08-12T14:12:37;29.25;;;5.88;;
81672;SDS011;71092;41.158;-8.680;2023-08-12T14:15:03;24.98;;;6.00;;
81672;SDS011;71092;41.158;-8.680;2023-08-12T14:17:30;23.13;;;5.55;;
81672;SDS011;71092;41.158;-8.680;2023-08-12T14:19:56;29.23;;;6.35;;
81672;SDS011;71092;41.158;-8.680;2023-08-12T14:22:23;24.10;;;5.90;;
81672;SDS011;71092;41.158;-8.680;2023-08-12T14:24:49;27.08;;;5.95;;
81672;SDS011;71092;41.158;-8.680;2023-08-12T14:27:15;24.10;;;6.05;;
81672;SDS011;71092;41.158;-8.680;2023-08-12T14:29:43;32.05;;;6.20;;
81672;SDS011;71092;41.158;-8.680;2023-08-12T14:32:09;20.38;;;5.35;;
81672;SDS011;71092;41.158;-8.680;2023-08-12T14:34:35;25.65;;;5.35;;